createdAt,value
2019-05-20T00:00:49.699Z,28.12
2019-05-20T00:03:17.881Z,29.13
2019-05-20T00:05:47.001Z,28.67
2019-05-20T00:08:15.367Z,27.33
2019-05-20T00:10:44.137Z,30.30
2019-05-20T00:13:12.983Z,28.15
2019-05-20T00:15:41.202Z,27.10
2019-05-20T00:18:09.368Z,26.87
2019-05-20T00:20:37.482Z,23.80
2019-05-20T00:23:05.657Z,25.53
2019-05-20T00:25:33.766Z,25.73
2019-05-20T00:28:01.920Z,23.80
2019-05-20T00:30:30.142Z,22.90
2019-05-20T00:32:58.254Z,26.67
2019-05-20T00:35:26.386Z,26.55
2019-05-20T00:37:54.544Z,27.27
2019-05-20T00:40:22.682Z,25.40
2019-05-20T00:42:50.991Z,25.00
2019-05-20T00:45:19.211Z,26.60
2019-05-20T00:47:47.337Z,26.20
2019-05-20T00:50:15.555Z,31.00
2019-05-20T00:52:43.700Z,28.03
2019-05-20T00:55:19.144Z,30.57
2019-05-20T00:57:47.999Z,28.57
2019-05-20T01:00:16.187Z,27.97
2019-05-20T01:02:56.376Z,28.60
2019-05-20T01:05:15.040Z,30.70
2019-05-20T01:07:43.909Z,30.97
2019-05-20T01:10:12.101Z,32.17
2019-05-20T01:12:40.321Z,28.43
2019-05-20T01:15:08.559Z,36.40
2019-05-20T01:17:36.811Z,30.90
2019-05-20T01:20:05.109Z,39.23
2019-05-20T01:22:33.248Z,28.83
2019-05-20T01:25:01.389Z,35.57
2019-05-20T01:27:29.540Z,39.70
2019-05-20T01:29:57.702Z,40.40
2019-05-20T01:32:25.824Z,39.80
2019-05-20T01:34:53.951Z,48.00
2019-05-20T01:37:22.125Z,41.27
2019-05-20T01:39:50.248Z,53.60
2019-05-20T01:42:18.460Z,46.40
2019-05-20T01:44:46.663Z,39.53
2019-05-20T01:47:14.810Z,37.83
2019-05-20T01:49:43.103Z,47.38
2019-05-20T01:52:11.248Z,54.17
2019-05-20T01:54:39.373Z,46.80
2019-05-20T01:57:07.573Z,52.50
2019-05-20T01:59:35.781Z,53.30
2019-05-20T02:02:04.111Z,72.20
2019-05-20T02:04:32.235Z,65.27
2019-05-20T02:07:00.366Z,61.57
2019-05-20T02:09:28.501Z,72.83
2019-05-20T02:11:56.693Z,65.00
2019-05-20T02:14:26.599Z,71.17
2019-05-20T02:16:54.732Z,69.17
2019-05-20T02:19:22.875Z,65.90
2019-05-20T02:21:51.011Z,63.30
2019-05-20T02:24:19.236Z,63.37
2019-05-20T02:26:47.714Z,75.77
2019-05-20T02:29:15.920Z,71.73
2019-05-20T02:31:44.080Z,69.60
2019-05-20T02:34:12.215Z,65.15
2019-05-20T02:36:40.362Z,70.50
2019-05-20T02:39:08.559Z,81.63
2019-05-20T02:41:36.735Z,80.03
2019-05-20T02:44:05.593Z,64.10
2019-05-20T02:46:33.821Z,88.37
2019-05-20T02:49:02.051Z,80.87
2019-05-20T02:51:32.686Z,71.62
2019-05-20T02:54:01.495Z,71.53
2019-05-20T02:56:30.274Z,69.67
2019-05-20T02:58:58.544Z,77.10
2019-05-20T03:01:26.866Z,74.47
2019-05-20T03:04:10.546Z,80.57
2019-05-20T03:06:24.980Z,81.70
2019-05-20T03:08:53.173Z,84.95
2019-05-20T03:11:21.421Z,71.30
2019-05-20T03:13:49.618Z,82.97
2019-05-20T03:16:17.842Z,78.57
2019-05-20T03:18:46.040Z,95.20
2019-05-20T03:21:14.327Z,78.30
2019-05-20T03:23:42.824Z,83.90
2019-05-20T03:26:10.954Z,83.43
2019-05-20T03:28:39.062Z,86.47
2019-05-20T03:31:07.280Z,75.00
2019-05-20T03:33:35.578Z,77.33
2019-05-20T03:36:03.763Z,80.37
2019-05-20T03:38:31.898Z,87.93
2019-05-20T03:41:00.043Z,92.03
2019-05-20T03:43:28.251Z,90.67
2019-05-20T03:45:56.367Z,94.27
2019-05-20T03:48:24.575Z,84.60
2019-05-20T03:50:52.709Z,86.83
2019-05-20T03:53:20.898Z,92.93
2019-05-20T03:55:49.016Z,81.60
2019-05-20T03:58:17.889Z,86.87
2019-05-20T04:00:46.924Z,76.93
2019-05-20T04:03:15.625Z,81.60
2019-05-20T04:05:43.944Z,94.58
2019-05-20T04:08:12.289Z,87.23
2019-05-20T04:10:40.488Z,81.42
2019-05-20T04:13:08.647Z,79.30
2019-05-20T04:15:37.580Z,85.87
2019-05-20T04:18:05.886Z,66.57
2019-05-20T04:20:34.088Z,71.60
2019-05-20T04:23:02.306Z,74.67
2019-05-20T04:25:30.514Z,65.60
2019-05-20T04:27:58.637Z,61.10
2019-05-20T04:30:26.812Z,60.03
2019-05-20T04:32:55.001Z,71.22
2019-05-20T04:35:23.717Z,61.37
2019-05-20T04:37:51.933Z,69.83
2019-05-20T04:40:20.123Z,75.93
2019-05-20T04:42:48.235Z,62.30
2019-05-20T04:45:16.450Z,62.23
2019-05-20T04:47:44.690Z,78.50
2019-05-20T04:50:13.266Z,69.42
2019-05-20T04:52:41.458Z,70.13
2019-05-20T04:55:10.213Z,74.70
2019-05-20T04:57:38.381Z,74.87
2019-05-20T05:00:07.788Z,70.07
2019-05-20T05:02:35.920Z,76.73
2019-05-20T05:05:05.451Z,68.77
2019-05-20T05:07:33.722Z,71.47
2019-05-20T05:10:01.924Z,74.73
2019-05-20T05:12:30.248Z,73.92
2019-05-20T05:14:58.451Z,78.70
2019-05-20T05:17:26.703Z,73.20
2019-05-20T05:19:54.893Z,78.63
2019-05-20T05:22:23.034Z,76.97
2019-05-20T05:24:51.224Z,85.28
2019-05-20T05:27:19.426Z,73.20
2019-05-20T05:29:47.587Z,81.44
2019-05-20T05:32:17.352Z,95.40
2019-05-20T05:34:45.535Z,86.70
2019-05-20T05:37:13.667Z,81.63
2019-05-20T05:39:41.879Z,87.97
2019-05-20T05:42:09.997Z,67.37
2019-05-20T05:44:38.403Z,65.60
2019-05-20T05:47:06.577Z,69.33
2019-05-20T05:49:34.721Z,56.97
2019-05-20T05:52:02.907Z,63.23
2019-05-20T05:54:31.111Z,62.37
2019-05-20T05:56:59.305Z,52.40
2019-05-20T05:59:30.185Z,53.67
2019-05-20T06:01:58.304Z,55.17
2019-05-20T06:04:26.427Z,57.63
2019-05-20T06:06:54.583Z,57.13
2019-05-20T06:09:22.714Z,51.40
2019-05-20T06:11:50.913Z,51.53
2019-05-20T06:14:19.783Z,51.33
2019-05-20T06:16:47.919Z,53.90
2019-05-20T06:19:16.111Z,47.47
2019-05-20T06:21:44.241Z,53.57
2019-05-20T06:24:12.366Z,45.33
2019-05-20T06:26:40.488Z,47.10
2019-05-20T06:29:08.667Z,47.77
2019-05-20T06:31:36.856Z,50.50
2019-05-20T06:34:04.970Z,46.67
2019-05-20T06:36:34.731Z,46.90
2019-05-20T06:39:12.513Z,39.53
2019-05-20T06:41:40.987Z,47.97
2019-05-20T06:44:09.226Z,40.00
2019-05-20T06:46:37.537Z,38.13
2019-05-20T06:49:05.807Z,43.13
2019-05-20T06:51:34.041Z,44.63
2019-05-20T06:54:02.330Z,41.98
2019-05-20T06:56:30.443Z,40.77
2019-05-20T06:58:58.582Z,44.00
2019-05-20T07:01:26.863Z,58.40
2019-05-20T07:03:55.011Z,41.90
2019-05-20T07:06:23.143Z,45.03
2019-05-20T07:08:51.322Z,42.73
2019-05-20T07:11:19.455Z,47.50
2019-05-20T07:13:47.618Z,48.07
2019-05-20T07:16:16.678Z,44.00
2019-05-20T07:18:44.862Z,43.90
2019-05-20T07:24:23.336Z,43.37
2019-05-20T07:26:51.591Z,47.67
2019-05-20T07:29:19.781Z,45.80
2019-05-20T07:31:47.931Z,39.47
2019-05-20T07:34:16.130Z,42.20
2019-05-20T07:36:44.359Z,44.13
2019-05-20T07:39:12.574Z,47.93
2019-05-20T07:41:41.843Z,38.90
2019-05-20T07:44:10.208Z,39.80
2019-05-20T07:46:38.442Z,44.00
2019-05-20T07:49:06.873Z,40.60
2019-05-20T07:51:35.140Z,45.80
2019-05-20T07:54:03.448Z,34.37
2019-05-20T07:56:33.326Z,40.87
2019-05-20T07:59:03.273Z,46.83
2019-05-20T08:01:31.599Z,48.13
2019-05-20T08:04:00.525Z,42.60
2019-05-20T08:06:28.717Z,38.30
2019-05-20T08:08:57.009Z,42.73
2019-05-20T08:11:25.274Z,42.27
2019-05-20T08:13:53.409Z,40.10
2019-05-20T08:16:21.643Z,41.20
2019-05-20T08:18:49.934Z,36.50
2019-05-20T08:21:18.534Z,33.78
2019-05-20T08:23:50.153Z,36.57
2019-05-20T08:26:18.140Z,36.73
2019-05-20T08:28:46.348Z,37.83
2019-05-20T08:31:14.472Z,45.73
2019-05-20T08:33:42.674Z,38.10
2019-05-20T08:36:10.881Z,42.07
2019-05-20T08:38:39.162Z,37.85
2019-05-20T08:41:07.351Z,40.93
2019-05-20T08:43:35.487Z,37.28
2019-05-20T08:46:03.694Z,34.47
2019-05-20T08:48:31.825Z,43.03
2019-05-20T08:50:59.983Z,40.73
2019-05-20T08:56:38.477Z,36.87
2019-05-20T08:59:06.748Z,37.90
2019-05-20T09:01:34.875Z,36.13
2019-05-20T09:04:03.068Z,34.58
2019-05-20T09:06:31.318Z,40.13
2019-05-20T09:08:59.582Z,37.90
2019-05-20T09:11:27.723Z,36.37
2019-05-20T09:13:55.862Z,31.33
2019-05-20T09:16:24.038Z,35.40
2019-05-20T09:18:52.247Z,33.87
2019-05-20T09:21:20.390Z,41.57
2019-05-20T09:23:48.584Z,33.37
2019-05-20T09:26:16.885Z,31.60
2019-05-20T09:28:45.132Z,31.43
2019-05-20T09:31:13.501Z,30.93
2019-05-20T09:33:42.037Z,34.00
2019-05-20T09:36:10.176Z,33.27
2019-05-20T09:38:38.533Z,31.35
2019-05-20T09:41:06.795Z,29.97
2019-05-20T09:43:34.928Z,30.07
2019-05-20T09:46:07.711Z,30.80
2019-05-20T09:48:33.073Z,33.53
2019-05-20T09:51:01.610Z,33.00
2019-05-20T09:53:29.955Z,34.53
2019-05-20T09:55:58.104Z,36.23
2019-05-20T09:58:26.375Z,32.63
2019-05-20T10:00:54.601Z,37.67
2019-05-20T10:03:22.715Z,38.53
2019-05-20T10:05:50.955Z,36.37
2019-05-20T10:08:36.251Z,33.40
2019-05-20T10:13:59.658Z,43.00
2019-05-20T10:16:27.795Z,39.10
2019-05-20T10:18:56.021Z,34.60
2019-05-20T10:21:24.238Z,36.50
2019-05-20T10:23:52.379Z,40.40
2019-05-20T10:26:20.512Z,39.33
2019-05-20T10:28:48.655Z,39.40
2019-05-20T10:31:16.784Z,38.47
2019-05-20T10:33:44.925Z,39.77
2019-05-20T10:36:13.131Z,42.57
2019-05-20T10:38:56.757Z,40.13
2019-05-20T10:41:11.136Z,40.40
2019-05-20T10:43:39.286Z,36.93
2019-05-20T10:46:07.468Z,45.87
2019-05-20T10:48:35.638Z,38.53
2019-05-20T10:51:03.829Z,39.10
2019-05-20T10:53:32.002Z,41.00
2019-05-20T10:56:00.582Z,39.80
2019-05-20T10:58:29.359Z,44.33
2019-05-20T11:01:03.227Z,43.80
2019-05-20T11:03:27.540Z,48.27
2019-05-20T11:05:55.733Z,43.20
2019-05-20T11:08:23.928Z,42.17
2019-05-20T11:10:52.978Z,45.52
2019-05-20T11:13:21.247Z,50.03
2019-05-20T11:15:49.470Z,45.83
2019-05-20T11:18:17.662Z,53.65
2019-05-20T11:20:45.830Z,58.73
2019-05-20T11:23:13.951Z,48.73
2019-05-20T11:25:42.101Z,51.40
2019-05-20T11:28:11.918Z,46.28
2019-05-20T11:30:40.106Z,48.83
2019-05-20T11:33:08.782Z,46.83
2019-05-20T11:35:37.016Z,46.37
2019-05-20T11:38:05.216Z,44.47
2019-05-20T11:40:33.471Z,43.20
2019-05-20T11:43:01.811Z,43.87
2019-05-20T11:45:30.082Z,44.80
2019-05-20T11:47:58.277Z,47.57
2019-05-20T11:50:26.487Z,52.30
2019-05-20T11:52:54.725Z,48.80
2019-05-20T11:55:23.057Z,49.47
2019-05-20T11:57:51.254Z,51.13
2019-05-20T12:00:19.663Z,54.77
2019-05-20T12:02:47.814Z,63.67
2019-05-20T12:05:16.079Z,64.73
2019-05-20T12:07:44.207Z,48.75
2019-05-20T12:10:12.598Z,59.30
2019-05-20T12:12:41.483Z,52.70
2019-05-20T12:15:09.906Z,63.00
2019-05-20T12:17:38.112Z,68.07
2019-05-20T12:20:07.963Z,47.83
2019-05-20T12:22:37.128Z,54.70
2019-05-20T12:25:06.337Z,54.47
2019-05-20T12:27:34.533Z,56.37
2019-05-20T12:30:02.749Z,49.30
2019-05-20T12:32:31.146Z,57.78
2019-05-20T12:34:59.511Z,56.97
2019-05-20T12:37:27.708Z,52.13
2019-05-20T12:40:06.503Z,51.23
2019-05-20T12:42:25.868Z,50.43
2019-05-20T12:44:54.090Z,58.00
2019-05-20T12:47:22.330Z,54.27
2019-05-20T12:49:50.618Z,47.37
2019-05-20T12:52:18.887Z,51.50
2019-05-20T12:55:04.229Z,50.43
2019-05-20T12:57:16.931Z,53.20
2019-05-20T12:59:45.218Z,49.65
2019-05-20T13:02:17.171Z,60.53
2019-05-20T13:04:43.296Z,51.80
2019-05-20T13:07:12.095Z,51.87
2019-05-20T13:09:40.332Z,49.40
2019-05-20T13:12:08.503Z,54.37
2019-05-20T13:14:36.728Z,55.07
2019-05-20T13:17:06.902Z,51.73
2019-05-20T13:19:35.194Z,55.87
2019-05-20T13:22:03.780Z,54.87
2019-05-20T13:24:31.991Z,59.70
2019-05-20T13:27:00.141Z,61.30
2019-05-20T13:29:28.285Z,54.60
2019-05-20T13:31:56.424Z,63.10
2019-05-20T13:34:24.984Z,56.87
2019-05-20T13:36:59.619Z,57.87
2019-05-20T13:39:27.821Z,57.77
2019-05-20T13:41:56.202Z,57.50
2019-05-20T13:44:24.497Z,56.33
2019-05-20T13:46:52.680Z,59.60
2019-05-20T13:49:20.831Z,55.97
2019-05-20T13:51:49.091Z,61.70
2019-05-20T13:54:17.340Z,61.03
2019-05-20T13:56:46.023Z,67.40
2019-05-20T13:59:14.791Z,62.88
2019-05-20T14:01:47.980Z,65.67
2019-05-20T14:04:17.603Z,63.70
2019-05-20T14:06:45.837Z,64.57
2019-05-20T14:09:14.212Z,63.37
2019-05-20T14:11:42.419Z,64.17
2019-05-20T14:14:14.080Z,69.37
2019-05-20T14:16:40.457Z,66.47
2019-05-20T14:19:08.763Z,66.20
2019-05-20T14:21:36.966Z,63.23
2019-05-20T14:24:05.119Z,66.10
2019-05-20T14:26:33.369Z,51.30
2019-05-20T14:29:01.639Z,67.60
2019-05-20T14:31:33.073Z,53.73
2019-05-20T14:34:01.345Z,54.10
2019-05-20T14:36:39.484Z,53.40
2019-05-20T14:38:59.860Z,49.87
2019-05-20T14:44:21.408Z,50.45
2019-05-20T14:46:49.653Z,42.47
2019-05-20T14:49:17.865Z,39.78
2019-05-20T14:51:46.065Z,42.77
2019-05-20T14:54:14.281Z,42.27
2019-05-20T14:56:42.449Z,46.00
2019-05-20T14:59:11.352Z,47.87
2019-05-20T15:01:39.572Z,48.10
2019-05-20T15:04:07.823Z,49.57
2019-05-20T15:06:37.602Z,46.37
2019-05-20T15:09:06.105Z,49.07
2019-05-20T15:11:37.999Z,53.10
2019-05-20T15:14:04.238Z,47.37
2019-05-20T15:16:33.178Z,51.25
2019-05-20T15:19:01.324Z,54.70
2019-05-20T15:21:29.953Z,53.87
2019-05-20T15:23:58.153Z,57.20
2019-05-20T15:26:26.285Z,50.47
2019-05-20T15:28:54.426Z,53.17
2019-05-20T15:31:22.562Z,52.93
2019-05-20T15:33:50.675Z,51.50
2019-05-20T15:36:18.891Z,53.57
2019-05-20T15:38:47.102Z,52.20
2019-05-20T15:41:15.293Z,52.07
2019-05-20T15:43:43.486Z,52.80
2019-05-20T15:46:11.651Z,53.08
2019-05-20T15:48:39.891Z,52.70
2019-05-20T15:51:08.198Z,50.43
2019-05-20T15:53:36.442Z,56.47
2019-05-20T15:56:04.630Z,50.45
2019-05-20T15:58:32.795Z,59.23
2019-05-20T16:01:00.903Z,52.50
2019-05-20T16:03:29.100Z,58.50
2019-05-20T16:05:59.803Z,52.10
2019-05-20T16:08:27.240Z,57.60
2019-05-20T16:10:55.445Z,52.67
2019-05-20T16:13:23.722Z,56.47
2019-05-20T16:15:51.874Z,54.33
2019-05-20T16:18:20.030Z,56.80
2019-05-20T16:20:48.225Z,67.87
2019-05-20T16:23:16.451Z,53.33
2019-05-20T16:25:44.691Z,56.65
2019-05-20T16:28:12.902Z,65.07
2019-05-20T16:30:41.094Z,60.80
2019-05-20T16:33:09.285Z,60.03
2019-05-20T16:35:37.745Z,66.03
2019-05-20T16:38:05.968Z,54.37
2019-05-20T16:40:34.103Z,61.33
2019-05-20T16:43:02.324Z,52.70
2019-05-20T16:45:30.468Z,52.83
2019-05-20T16:48:04.738Z,61.87
2019-05-20T16:50:33.032Z,57.20
2019-05-20T16:53:01.295Z,50.87
2019-05-20T16:55:29.458Z,54.10
2019-05-20T16:57:57.735Z,53.07
2019-05-20T17:00:31.952Z,50.10
2019-05-20T17:02:55.907Z,47.97
2019-05-20T17:05:24.062Z,46.60
2019-05-20T17:07:52.265Z,50.20
2019-05-20T17:10:20.544Z,47.05
2019-05-20T17:12:48.748Z,54.60
2019-05-20T17:15:17.421Z,49.03
2019-05-20T17:17:45.563Z,55.60
2019-05-20T17:20:14.051Z,48.78
2019-05-20T17:22:42.182Z,52.50
2019-05-20T17:25:10.889Z,50.10
2019-05-20T17:27:39.184Z,46.93
2019-05-20T17:30:07.746Z,49.90
2019-05-20T17:32:36.008Z,55.83
2019-05-20T17:35:04.444Z,51.17
2019-05-20T17:37:33.338Z,55.65
2019-05-20T17:40:01.610Z,44.57
2019-05-20T17:42:29.969Z,59.10
2019-05-20T17:44:58.186Z,53.55
2019-05-20T17:47:26.489Z,52.80
2019-05-20T17:53:04.339Z,47.07
2019-05-20T17:55:32.584Z,51.30
2019-05-20T17:58:00.779Z,48.23
2019-05-20T18:00:29.127Z,49.90
2019-05-20T18:02:57.335Z,47.23
2019-05-20T18:05:25.461Z,50.10
2019-05-20T18:07:53.706Z,44.10
2019-05-20T18:10:24.151Z,45.88
2019-05-20T18:12:52.505Z,77.93
2019-05-20T18:15:20.701Z,54.67
2019-05-20T18:17:48.890Z,41.80
2019-05-20T18:20:17.115Z,37.17
2019-05-20T18:22:45.365Z,47.37
2019-05-20T18:25:14.678Z,44.37
2019-05-20T18:27:42.881Z,34.67
2019-05-20T18:30:11.565Z,43.53
2019-05-20T18:32:39.846Z,37.97
2019-05-20T18:35:08.145Z,46.10
2019-05-20T18:37:36.338Z,42.90
2019-05-20T18:40:13.947Z,37.87
2019-05-20T18:42:35.442Z,40.70
2019-05-20T18:45:04.791Z,38.53
2019-05-20T18:47:32.939Z,38.13
2019-05-20T18:50:01.168Z,39.77
2019-05-20T18:52:29.372Z,46.53
2019-05-20T18:54:57.614Z,39.80
2019-05-20T18:57:25.850Z,43.87
2019-05-20T18:59:54.043Z,39.43
2019-05-20T19:02:22.170Z,41.37
2019-05-20T19:04:50.366Z,43.00
2019-05-20T19:07:18.748Z,43.70
2019-05-20T19:09:46.955Z,44.00
2019-05-20T19:12:15.166Z,44.90
2019-05-20T19:14:43.391Z,46.43
2019-05-20T19:17:11.629Z,48.53
2019-05-20T19:19:39.887Z,54.77
2019-05-20T19:22:08.218Z,46.07
2019-05-20T19:24:36.398Z,50.73
2019-05-20T19:27:05.734Z,45.33
2019-05-20T19:29:33.963Z,47.63
2019-05-20T19:32:02.525Z,55.70
2019-05-20T19:34:31.046Z,45.70
2019-05-20T19:36:59.235Z,46.90
2019-05-20T19:39:27.352Z,55.43
2019-05-20T19:41:55.575Z,49.60
2019-05-20T19:44:23.738Z,50.83
2019-05-20T19:46:51.886Z,52.33
2019-05-20T19:49:20.028Z,49.87
2019-05-20T19:51:48.237Z,59.67
2019-05-20T19:54:16.426Z,54.90
2019-05-20T19:56:44.627Z,53.45
2019-05-20T19:59:12.775Z,56.10
2019-05-20T20:01:41.059Z,61.07
2019-05-20T20:04:09.373Z,62.73
2019-05-20T20:06:37.655Z,52.03
2019-05-20T20:09:07.704Z,55.23
2019-05-20T20:11:35.868Z,53.40
2019-05-20T20:14:04.169Z,55.90
2019-05-20T20:16:32.372Z,56.73
2019-05-20T20:19:00.505Z,56.35
2019-05-20T20:21:28.747Z,52.90
2019-05-20T20:23:57.129Z,62.70
2019-05-20T20:26:25.419Z,55.70
2019-05-20T20:28:54.493Z,63.27
2019-05-20T20:31:23.830Z,59.93
2019-05-20T20:33:51.989Z,58.60
2019-05-20T20:36:21.502Z,63.90
2019-05-20T20:38:50.025Z,81.23
2019-05-20T20:41:18.216Z,65.57
2019-05-20T20:43:46.349Z,76.23
2019-05-20T20:46:14.498Z,78.72
2019-05-20T20:48:42.758Z,70.87
2019-05-20T20:51:10.919Z,70.37
2019-05-20T20:53:39.045Z,65.15
2019-05-20T20:56:07.287Z,66.27
2019-05-20T20:58:35.510Z,66.70
2019-05-20T21:01:03.641Z,56.87
2019-05-20T21:03:31.854Z,60.20
2019-05-20T21:09:10.475Z,53.00
2019-05-20T21:11:38.685Z,52.83
2019-05-20T21:14:06.902Z,43.98
2019-05-20T21:16:36.328Z,43.80
2019-05-20T21:19:04.543Z,42.37
2019-05-20T21:21:32.715Z,59.63
2019-05-20T21:24:00.860Z,38.33
2019-05-20T21:26:29.018Z,45.13
2019-05-20T21:28:57.201Z,39.13
2019-05-20T21:31:25.336Z,39.63
2019-05-20T21:33:53.543Z,42.13
2019-05-20T21:36:21.728Z,39.98
2019-05-20T21:38:49.980Z,38.53
2019-05-20T21:41:18.232Z,39.53
2019-05-20T21:43:46.429Z,38.30
2019-05-20T21:46:14.567Z,44.33
2019-05-20T21:48:42.759Z,42.07
2019-05-20T21:51:11.632Z,44.50
2019-05-20T21:53:39.762Z,42.03
2019-05-20T21:56:07.895Z,49.80
2019-05-20T21:58:36.119Z,43.93
2019-05-20T22:01:04.371Z,50.07
2019-05-20T22:03:32.612Z,36.17
2019-05-20T22:06:00.828Z,49.70
2019-05-20T22:08:29.745Z,47.63
2019-05-20T22:10:57.869Z,46.43
2019-05-20T22:13:26.100Z,42.77
2019-05-20T22:15:54.322Z,47.27
2019-05-20T22:18:22.467Z,45.07
2019-05-20T22:20:50.610Z,40.63
2019-05-20T22:23:22.837Z,55.33
2019-05-20T22:25:52.146Z,50.47
2019-05-20T22:28:20.413Z,47.77
2019-05-20T22:30:48.589Z,61.37
2019-05-20T22:33:16.786Z,51.70
2019-05-20T22:35:44.937Z,57.87
2019-05-20T22:38:13.131Z,53.55
2019-05-20T22:40:41.276Z,53.13
2019-05-20T22:43:09.405Z,58.30
2019-05-20T22:45:37.535Z,56.50
2019-05-20T22:48:05.667Z,54.03
2019-05-20T22:50:33.796Z,64.17
2019-05-20T22:53:01.923Z,62.47
2019-05-20T22:55:30.060Z,51.33
2019-05-20T22:57:58.241Z,60.83
2019-05-20T23:00:26.458Z,63.70
2019-05-20T23:02:54.712Z,62.77
2019-05-20T23:05:22.915Z,56.83
2019-05-20T23:07:51.125Z,55.63
2019-05-20T23:10:19.347Z,64.23
2019-05-20T23:12:47.461Z,65.77
2019-05-20T23:15:15.699Z,60.63
2019-05-20T23:17:43.854Z,66.43
2019-05-20T23:20:12.247Z,72.40
2019-05-20T23:22:40.424Z,52.35
2019-05-20T23:25:08.728Z,68.37
2019-05-20T23:27:36.851Z,64.50
2019-05-20T23:30:08.214Z,67.40
2019-05-20T23:32:36.403Z,78.13
2019-05-20T23:35:05.701Z,64.03
2019-05-20T23:37:33.866Z,77.80
2019-05-20T23:40:02.128Z,70.80
2019-05-20T23:42:30.336Z,48.57
2019-05-20T23:44:58.478Z,52.80
2019-05-20T23:47:26.635Z,52.97
2019-05-20T23:49:54.775Z,44.43
2019-05-20T23:52:22.922Z,50.85
2019-05-20T23:54:51.039Z,44.53
2019-05-20T23:57:19.210Z,37.17
2019-05-20T23:59:47.357Z,37.10
